Pineville, MO

4:43 PM CDT on October 20, 2014 (GMT -0500)
Bentonville Municipal-Thaden | Change Station
CLOSE
Current Station
Airport
Location: Bentonville,
Elevation: 1296 ft
Nearby Weather Stations

Elev 1296 ft 36.34 °N, 94.22 °W | Updated 8 minutes ago

Partly Cloudy
Partly Cloudy
68 °F
Feels Like 68 °F
N
0
Wind Variable Wind from North

Today
High -- | Low -- °F
--% Chance of Precip.
Yesterday
High -- | Low -- °F
Precip. -- in
7:29 AM 6:34 PM
Waning Crescent, 9% visible
Pressure 30.05 in
Visibility 10.0 miles
Clouds Overcast 2400 ft
Dew Point 57 °F
Humidity 68%
Rainfall 0.08 in
Snow Depth Not available.
UV 1 out of 12
Pollen 2.30 out of 12
Air Quality Not available.
Flu Activity No Activity
METAR KVBT 202135Z AUTO 00000KT 10SM OVC024 20/14 A3005 RMK AO1

More Conditions Fewer Conditions

Pressure 30.05 in
Visibility 10.0 miles
Clouds Overcast 2400 ft
Dew Point 57 °F
Humidity 68%
Rainfall 0.08 in
Snow Depth Not available.
UV 1 out of 12
Pollen 2.30 out of 12
Air Quality Not available.
Flu Activity No Activity
METAR KVBT 202135Z AUTO 00000KT 10SM OVC024 20/14 A3005 RMK AO1

More Conditions Fewer Conditions

10-Day Weather Forecast

Almanac

Astronomy

Oct. 20, 2014 Rise Set
Actual Time 7:29 AM CDT 6:34 PM CDT
Civil Twilight 7:03 AM CDT 7:00 PM CDT
Nautical Twilight 6:33 AM CDT 7:30 PM CDT
Astronomical Twilight 6:03 AM CDT 8:00 PM CDT
Moon 4:23 AM CDT 4:53 PM CDT
Length of Visible Light 11h 57m
Length of Day
11h 05m
Waning Crescent, 9% of the Moon is Illuminated
Today
Waning Crescent
Oct 23
New
Oct 30
First Quarter
Nov 6
Full
Nov 14
Last Quarter

Today's Extremes

State Highs State Lows

Community

WunderPhotos

Upload Photos

1,763,527 photos uploaded!

WunderBlogs® & News

Nearby

Snow Depth

Station Depth Elevation
No new snow has been reported.

Earthquake Activity

City Distance Mag. Time & Date
No recent earthquake activity has been reported nearby.
Minimum magnitude displayed is 2.5.

Coastal Water Temperatures

Place Temperature
No Stations Reporting

Nearby Weather Stations